sensor_id;sensor_type;location;lat;lon;timestamp;P1;durP1;ratioP1;P2;durP2;ratioP2
3131;SDS011;62090;52.330;9.104;2023-06-14T00:00:01;5.60;;;2.60;;
3131;SDS011;62090;52.330;9.104;2023-06-14T00:02:34;6.20;;;2.53;;
3131;SDS011;62090;52.330;9.104;2023-06-14T00:05:05;6.63;;;3.13;;
3131;SDS011;62090;52.330;9.104;2023-06-14T00:07:35;5.83;;;2.83;;
3131;SDS011;62090;52.330;9.104;2023-06-14T00:10:09;6.50;;;3.37;;
3131;SDS011;62090;52.330;9.104;2023-06-14T00:12:40;5.33;;;2.23;;
3131;SDS011;62090;52.330;9.104;2023-06-14T00:15:13;4.80;;;2.47;;
3131;SDS011;62090;52.330;9.104;2023-06-14T00:17:43;3.80;;;2.27;;
3131;SDS011;62090;52.330;9.104;2023-06-14T00:20:14;3.70;;;2.40;;
3131;SDS011;62090;52.330;9.104;2023-06-14T00:22:44;10.57;;;3.03;;
3131;SDS011;62090;52.330;9.104;2023-06-14T00:25:14;6.03;;;2.87;;
3131;SDS011;62090;52.330;9.104;2023-06-14T00:27:54;7.50;;;2.50;;
3131;SDS011;62090;52.330;9.104;2023-06-14T00:30:27;3.90;;;2.70;;
3131;SDS011;62090;52.330;9.104;2023-06-14T00:32:58;4.90;;;2.70;;
3131;SDS011;62090;52.330;9.104;2023-06-14T00:35:27;6.60;;;2.60;;
3131;SDS011;62090;52.330;9.104;2023-06-14T00:37:57;4.90;;;2.87;;
3131;SDS011;62090;52.330;9.104;2023-06-14T00:40:28;5.73;;;2.77;;
3131;SDS011;62090;52.330;9.104;2023-06-14T00:42:58;6.70;;;3.10;;
3131;SDS011;62090;52.330;9.104;2023-06-14T00:45:30;5.53;;;2.87;;
3131;SDS011;62090;52.330;9.104;2023-06-14T00:48:02;6.40;;;3.13;;
3131;SDS011;62090;52.330;9.104;2023-06-14T00:50:35;6.13;;;2.70;;
3131;SDS011;62090;52.330;9.104;2023-06-14T00:53:07;11.10;;;2.97;;
3131;SDS011;62090;52.330;9.104;2023-06-14T00:55:37;11.40;;;3.20;;
3131;SDS011;62090;52.330;9.104;2023-06-14T00:58:07;4.43;;;2.37;;
3131;SDS011;62090;52.330;9.104;2023-06-14T01:00:40;7.13;;;3.03;;
3131;SDS011;62090;52.330;9.104;2023-06-14T01:03:11;4.23;;;2.70;;
3131;SDS011;62090;52.330;9.104;2023-06-14T01:05:46;11.17;;;3.10;;
3131;SDS011;62090;52.330;9.104;2023-06-14T01:08:19;5.67;;;3.07;;
3131;SDS011;62090;52.330;9.104;2023-06-14T01:10:56;7.00;;;3.30;;
3131;SDS011;62090;52.330;9.104;2023-06-14T01:13:32;8.00;;;2.80;;
3131;SDS011;62090;52.330;9.104;2023-06-14T01:16:06;7.90;;;3.00;;
3131;SDS011;62090;52.330;9.104;2023-06-14T01:18:37;10.47;;;3.20;;
3131;SDS011;62090;52.330;9.104;2023-06-14T01:21:19;9.90;;;3.27;;
3131;SDS011;62090;52.330;9.104;2023-06-14T01:23:53;4.57;;;2.97;;
3131;SDS011;62090;52.330;9.104;2023-06-14T01:26:25;4.67;;;3.23;;
3131;SDS011;62090;52.330;9.104;2023-06-14T01:28:59;11.37;;;3.07;;
3131;SDS011;62090;52.330;9.104;2023-06-14T01:31:29;11.70;;;2.87;;
3131;SDS011;62090;52.330;9.104;2023-06-14T01:34:06;6.80;;;2.90;;
3131;SDS011;62090;52.330;9.104;2023-06-14T01:36:37;12.83;;;2.67;;
3131;SDS011;62090;52.330;9.104;2023-06-14T01:39:13;7.83;;;3.63;;
3131;SDS011;62090;52.330;9.104;2023-06-14T01:41:44;4.30;;;2.60;;
3131;SDS011;62090;52.330;9.104;2023-06-14T01:44:18;12.63;;;2.83;;
3131;SDS011;62090;52.330;9.104;2023-06-14T01:46:49;7.23;;;2.60;;
3131;SDS011;62090;52.330;9.104;2023-06-14T01:49:21;6.57;;;3.07;;
3131;SDS011;62090;52.330;9.104;2023-06-14T01:51:52;10.43;;;3.17;;
3131;SDS011;62090;52.330;9.104;2023-06-14T01:54:25;7.57;;;3.27;;
3131;SDS011;62090;52.330;9.104;2023-06-14T01:56:55;4.23;;;3.00;;
3131;SDS011;62090;52.330;9.104;2023-06-14T01:59:26;10.00;;;3.00;;
3131;SDS011;62090;52.330;9.104;2023-06-14T02:01:57;11.70;;;3.17;;
3131;SDS011;62090;52.330;9.104;2023-06-14T02:04:27;13.60;;;3.33;;
3131;SDS011;62090;52.330;9.104;2023-06-14T02:06:57;6.00;;;3.50;;
3131;SDS011;62090;52.330;9.104;2023-06-14T02:09:30;9.23;;;3.57;;
3131;SDS011;62090;52.330;9.104;2023-06-14T02:12:00;6.77;;;3.17;;
3131;SDS011;62090;52.330;9.104;2023-06-14T02:14:30;12.47;;;2.93;;
3131;SDS011;62090;52.330;9.104;2023-06-14T02:17:00;4.03;;;2.67;;
3131;SDS011;62090;52.330;9.104;2023-06-14T02:19:30;22.80;;;4.10;;
3131;SDS011;62090;52.330;9.104;2023-06-14T02:21:59;10.10;;;3.73;;
3131;SDS011;62090;52.330;9.104;2023-06-14T02:24:32;4.80;;;3.10;;
3131;SDS011;62090;52.330;9.104;2023-06-14T02:27:02;7.33;;;3.07;;
3131;SDS011;62090;52.330;9.104;2023-06-14T02:29:33;14.07;;;3.53;;
3131;SDS011;62090;52.330;9.104;2023-06-14T02:32:03;10.07;;;3.47;;
3131;SDS011;62090;52.330;9.104;2023-06-14T02:34:34;10.87;;;3.27;;
3131;SDS011;62090;52.330;9.104;2023-06-14T02:37:07;8.37;;;3.67;;
3131;SDS011;62090;52.330;9.104;2023-06-14T02:39:40;7.43;;;3.40;;
3131;SDS011;62090;52.330;9.104;2023-06-14T02:42:10;6.27;;;3.90;;
3131;SDS011;62090;52.330;9.104;2023-06-14T02:44:41;10.90;;;3.30;;
3131;SDS011;62090;52.330;9.104;2023-06-14T02:47:11;10.03;;;3.73;;
3131;SDS011;62090;52.330;9.104;2023-06-14T02:49:43;9.97;;;4.03;;
3131;SDS011;62090;52.330;9.104;2023-06-14T02:52:14;4.90;;;3.20;;
3131;SDS011;62090;52.330;9.104;2023-06-14T02:54:46;6.50;;;3.10;;
3131;SDS011;62090;52.330;9.104;2023-06-14T02:57:17;9.60;;;3.90;;
3131;SDS011;62090;52.330;9.104;2023-06-14T02:59:47;5.43;;;3.33;;
3131;SDS011;62090;52.330;9.104;2023-06-14T03:02:17;5.77;;;3.83;;
3131;SDS011;62090;52.330;9.104;2023-06-14T03:04:47;9.30;;;4.20;;
3131;SDS011;62090;52.330;9.104;2023-06-14T03:07:19;7.00;;;3.50;;
3131;SDS011;62090;52.330;9.104;2023-06-14T03:09:55;6.00;;;3.63;;
3131;SDS011;62090;52.330;9.104;2023-06-14T03:12:25;7.77;;;3.27;;
3131;SDS011;62090;52.330;9.104;2023-06-14T03:14:55;7.63;;;4.17;;
3131;SDS011;62090;52.330;9.104;2023-06-14T03:17:32;7.50;;;3.40;;
3131;SDS011;62090;52.330;9.104;2023-06-14T03:20:07;8.87;;;3.87;;
3131;SDS011;62090;52.330;9.104;2023-06-14T03:22:37;5.70;;;3.20;;
3131;SDS011;62090;52.330;9.104;2023-06-14T03:25:10;8.20;;;3.47;;
3131;SDS011;62090;52.330;9.104;2023-06-14T03:27:41;6.43;;;4.30;;
3131;SDS011;62090;52.330;9.104;2023-06-14T03:30:12;19.83;;;5.03;;
3131;SDS011;62090;52.330;9.104;2023-06-14T03:32:46;9.43;;;3.90;;
3131;SDS011;62090;52.330;9.104;2023-06-14T03:35:17;7.80;;;3.53;;
3131;SDS011;62090;52.330;9.104;2023-06-14T03:37:48;6.23;;;3.40;;
3131;SDS011;62090;52.330;9.104;2023-06-14T03:40:20;6.33;;;3.70;;
3131;SDS011;62090;52.330;9.104;2023-06-14T03:43:00;7.07;;;4.30;;
3131;SDS011;62090;52.330;9.104;2023-06-14T03:45:29;7.77;;;3.10;;
3131;SDS011;62090;52.330;9.104;2023-06-14T03:48:00;4.07;;;2.80;;
3131;SDS011;62090;52.330;9.104;2023-06-14T03:50:30;7.40;;;3.83;;
3131;SDS011;62090;52.330;9.104;2023-06-14T03:53:00;7.70;;;4.13;;
3131;SDS011;62090;52.330;9.104;2023-06-14T03:55:33;7.83;;;4.20;;
3131;SDS011;62090;52.330;9.104;2023-06-14T03:58:25;8.40;;;3.73;;
3131;SDS011;62090;52.330;9.104;2023-06-14T04:00:55;8.87;;;4.40;;
3131;SDS011;62090;52.330;9.104;2023-06-14T04:03:25;6.30;;;3.80;;
3131;SDS011;62090;52.330;9.104;2023-06-14T04:05:58;7.63;;;3.37;;
3131;SDS011;62090;52.330;9.104;2023-06-14T04:08:28;5.90;;;3.13;;
3131;SDS011;62090;52.330;9.104;2023-06-14T04:11:01;13.30;;;4.50;;
3131;SDS011;62090;52.330;9.104;2023-06-14T04:13:31;6.60;;;4.00;;
3131;SDS011;62090;52.330;9.104;2023-06-14T04:16:03;5.60;;;3.67;;
3131;SDS011;62090;52.330;9.104;2023-06-14T04:18:34;11.37;;;4.27;;
3131;SDS011;62090;52.330;9.104;2023-06-14T04:21:04;8.40;;;4.40;;
3131;SDS011;62090;52.330;9.104;2023-06-14T04:23:35;12.93;;;3.63;;
3131;SDS011;62090;52.330;9.104;2023-06-14T04:26:07;7.83;;;3.43;;
3131;SDS011;62090;52.330;9.104;2023-06-14T04:28:39;5.73;;;3.70;;
3131;SDS011;62090;52.330;9.104;2023-06-14T04:31:09;7.20;;;3.97;;
3131;SDS011;62090;52.330;9.104;2023-06-14T04:33:39;6.37;;;4.10;;
3131;SDS011;62090;52.330;9.104;2023-06-14T04:36:17;7.57;;;3.33;;
3131;SDS011;62090;52.330;9.104;2023-06-14T04:38:48;6.43;;;3.57;;
3131;SDS011;62090;52.330;9.104;2023-06-14T04:41:25;10.40;;;3.50;;
3131;SDS011;62090;52.330;9.104;2023-06-14T04:43:57;8.17;;;3.43;;
3131;SDS011;62090;52.330;9.104;2023-06-14T04:46:32;6.43;;;3.17;;
3131;SDS011;62090;52.330;9.104;2023-06-14T04:49:20;17.67;;;4.63;;
3131;SDS011;62090;52.330;9.104;2023-06-14T04:51:53;6.63;;;3.50;;
3131;SDS011;62090;52.330;9.104;2023-06-14T04:54:29;6.73;;;3.60;;
3131;SDS011;62090;52.330;9.104;2023-06-14T04:57:09;7.63;;;4.10;;
3131;SDS011;62090;52.330;9.104;2023-06-14T04:59:42;12.43;;;4.27;;
3131;SDS011;62090;52.330;9.104;2023-06-14T05:02:12;8.30;;;3.30;;
3131;SDS011;62090;52.330;9.104;2023-06-14T05:04:42;8.30;;;4.50;;
3131;SDS011;62090;52.330;9.104;2023-06-14T05:07:14;10.47;;;3.83;;
3131;SDS011;62090;52.330;9.104;2023-06-14T05:09:44;8.83;;;3.43;;
3131;SDS011;62090;52.330;9.104;2023-06-14T05:12:17;5.60;;;4.10;;
3131;SDS011;62090;52.330;9.104;2023-06-14T05:14:48;5.43;;;3.93;;
3131;SDS011;62090;52.330;9.104;2023-06-14T05:17:20;12.03;;;3.57;;
3131;SDS011;62090;52.330;9.104;2023-06-14T05:19:50;10.23;;;3.90;;
3131;SDS011;62090;52.330;9.104;2023-06-14T05:22:19;8.70;;;3.97;;
3131;SDS011;62090;52.330;9.104;2023-06-14T05:24:49;5.73;;;3.20;;
3131;SDS011;62090;52.330;9.104;2023-06-14T05:27:22;6.37;;;3.27;;
3131;SDS011;62090;52.330;9.104;2023-06-14T05:29:53;5.37;;;3.50;;
3131;SDS011;62090;52.330;9.104;2023-06-14T05:32:26;6.63;;;3.20;;
3131;SDS011;62090;52.330;9.104;2023-06-14T05:34:56;7.53;;;3.30;;
3131;SDS011;62090;52.330;9.104;2023-06-14T05:37:26;6.70;;;2.90;;
3131;SDS011;62090;52.330;9.104;2023-06-14T05:39:57;5.30;;;2.90;;
3131;SDS011;62090;52.330;9.104;2023-06-14T05:42:30;10.13;;;2.77;;
3131;SDS011;62090;52.330;9.104;2023-06-14T05:44:59;5.57;;;3.40;;
3131;SDS011;62090;52.330;9.104;2023-06-14T05:47:29;5.90;;;2.90;;
3131;SDS011;62090;52.330;9.104;2023-06-14T05:49:59;3.90;;;2.70;;
3131;SDS011;62090;52.330;9.104;2023-06-14T05:52:29;6.37;;;3.60;;
3131;SDS011;62090;52.330;9.104;2023-06-14T05:55:00;6.23;;;3.10;;
3131;SDS011;62090;52.330;9.104;2023-06-14T05:57:32;5.60;;;2.73;;
3131;SDS011;62090;52.330;9.104;2023-06-14T06:00:03;6.27;;;2.93;;
3131;SDS011;62090;52.330;9.104;2023-06-14T06:02:37;6.73;;;2.83;;
3131;SDS011;62090;52.330;9.104;2023-06-14T06:05:07;8.63;;;2.90;;
3131;SDS011;62090;52.330;9.104;2023-06-14T06:07:38;4.00;;;2.27;;
3131;SDS011;62090;52.330;9.104;2023-06-14T06:10:10;3.60;;;2.63;;
3131;SDS011;62090;52.330;9.104;2023-06-14T06:12:43;4.70;;;2.47;;
3131;SDS011;62090;52.330;9.104;2023-06-14T06:15:15;5.43;;;2.27;;
3131;SDS011;62090;52.330;9.104;2023-06-14T06:17:45;2.90;;;2.07;;
3131;SDS011;62090;52.330;9.104;2023-06-14T06:20:22;5.17;;;2.60;;
3131;SDS011;62090;52.330;9.104;2023-06-14T06:22:56;4.43;;;2.43;;
3131;SDS011;62090;52.330;9.104;2023-06-14T06:25:26;11.70;;;2.60;;
3131;SDS011;62090;52.330;9.104;2023-06-14T06:28:01;8.10;;;2.13;;
3131;SDS011;62090;52.330;9.104;2023-06-14T06:30:31;7.13;;;2.70;;
3131;SDS011;62090;52.330;9.104;2023-06-14T06:33:01;6.43;;;2.53;;
3131;SDS011;62090;52.330;9.104;2023-06-14T06:35:31;4.80;;;1.90;;
3131;SDS011;62090;52.330;9.104;2023-06-14T06:38:01;7.00;;;2.30;;
3131;SDS011;62090;52.330;9.104;2023-06-14T06:40:31;3.03;;;1.83;;
3131;SDS011;62090;52.330;9.104;2023-06-14T06:43:04;6.40;;;1.73;;
3131;SDS011;62090;52.330;9.104;2023-06-14T06:45:40;2.73;;;1.90;;
3131;SDS011;62090;52.330;9.104;2023-06-14T06:48:10;4.40;;;2.03;;
3131;SDS011;62090;52.330;9.104;2023-06-14T06:50:40;3.10;;;1.93;;
3131;SDS011;62090;52.330;9.104;2023-06-14T06:53:10;4.63;;;1.73;;
3131;SDS011;62090;52.330;9.104;2023-06-14T06:55:46;8.47;;;1.90;;
3131;SDS011;62090;52.330;9.104;2023-06-14T06:58:19;3.47;;;1.80;;
3131;SDS011;62090;52.330;9.104;2023-06-14T07:00:49;4.17;;;1.90;;
3131;SDS011;62090;52.330;9.104;2023-06-14T07:03:19;7.83;;;2.23;;
3131;SDS011;62090;52.330;9.104;2023-06-14T07:05:48;9.90;;;1.70;;
3131;SDS011;62090;52.330;9.104;2023-06-14T07:08:18;3.60;;;1.90;;
3131;SDS011;62090;52.330;9.104;2023-06-14T07:10:48;5.13;;;1.93;;
3131;SDS011;62090;52.330;9.104;2023-06-14T07:13:21;3.97;;;1.67;;
3131;SDS011;62090;52.330;9.104;2023-06-14T07:15:53;2.90;;;1.90;;
3131;SDS011;62090;52.330;9.104;2023-06-14T07:18:24;8.33;;;1.90;;
3131;SDS011;62090;52.330;9.104;2023-06-14T07:20:53;3.40;;;1.70;;
3131;SDS011;62090;52.330;9.104;2023-06-14T07:23:23;5.03;;;1.70;;
3131;SDS011;62090;52.330;9.104;2023-06-14T07:25:53;5.00;;;1.83;;
3131;SDS011;62090;52.330;9.104;2023-06-14T07:28:26;2.90;;;1.77;;
3131;SDS011;62090;52.330;9.104;2023-06-14T07:30:55;3.50;;;2.00;;
3131;SDS011;62090;52.330;9.104;2023-06-14T07:33:25;5.03;;;1.60;;
3131;SDS011;62090;52.330;9.104;2023-06-14T07:35:55;6.97;;;1.73;;
3131;SDS011;62090;52.330;9.104;2023-06-14T07:38:25;3.20;;;1.63;;
3131;SDS011;62090;52.330;9.104;2023-06-14T07:40:55;7.23;;;1.63;;
3131;SDS011;62090;52.330;9.104;2023-06-14T07:43:27;1.67;;;1.40;;
3131;SDS011;62090;52.330;9.104;2023-06-14T07:45:57;3.10;;;1.63;;
3131;SDS011;62090;52.330;9.104;2023-06-14T07:48:33;6.70;;;2.13;;
3131;SDS011;62090;52.330;9.104;2023-06-14T07:51:03;4.80;;;1.70;;
3131;SDS011;62090;52.330;9.104;2023-06-14T07:53:33;3.60;;;2.00;;
3131;SDS011;62090;52.330;9.104;2023-06-14T07:56:07;4.60;;;1.60;;
3131;SDS011;62090;52.330;9.104;2023-06-14T07:58:40;3.23;;;1.60;;
3131;SDS011;62090;52.330;9.104;2023-06-14T08:01:09;4.17;;;2.07;;
3131;SDS011;62090;52.330;9.104;2023-06-14T08:03:40;3.07;;;1.80;;
3131;SDS011;62090;52.330;9.104;2023-06-14T08:06:10;5.03;;;1.83;;
3131;SDS011;62090;52.330;9.104;2023-06-14T08:08:40;2.90;;;2.17;;
3131;SDS011;62090;52.330;9.104;2023-06-14T08:11:09;2.60;;;1.77;;
3131;SDS011;62090;52.330;9.104;2023-06-14T08:13:42;3.00;;;1.87;;
3131;SDS011;62090;52.330;9.104;2023-06-14T08:16:12;4.67;;;2.50;;
3131;SDS011;62090;52.330;9.104;2023-06-14T08:18:42;3.70;;;1.77;;
3131;SDS011;62090;52.330;9.104;2023-06-14T08:21:11;4.73;;;2.10;;
3131;SDS011;62090;52.330;9.104;2023-06-14T08:23:42;3.30;;;1.90;;
3131;SDS011;62090;52.330;9.104;2023-06-14T08:26:12;4.30;;;1.83;;
3131;SDS011;62090;52.330;9.104;2023-06-14T08:28:45;3.20;;;1.80;;
3131;SDS011;62090;52.330;9.104;2023-06-14T08:31:14;4.87;;;1.93;;
3131;SDS011;62090;52.330;9.104;2023-06-14T08:33:44;2.60;;;1.67;;
3131;SDS011;62090;52.330;9.104;2023-06-14T08:36:14;2.70;;;1.60;;
3131;SDS011;62090;52.330;9.104;2023-06-14T08:38:44;6.07;;;1.90;;
3131;SDS011;62090;52.330;9.104;2023-06-14T08:41:14;1.93;;;1.60;;
3131;SDS011;62090;52.330;9.104;2023-06-14T08:43:53;4.37;;;1.47;;
3131;SDS011;62090;52.330;9.104;2023-06-14T08:46:24;3.13;;;2.20;;
3131;SDS011;62090;52.330;9.104;2023-06-14T08:48:55;5.37;;;1.80;;
3131;SDS011;62090;52.330;9.104;2023-06-14T08:51:26;2.67;;;2.07;;
3131;SDS011;62090;52.330;9.104;2023-06-14T08:54:00;7.80;;;1.60;;
3131;SDS011;62090;52.330;9.104;2023-06-14T08:56:30;3.63;;;1.80;;
3131;SDS011;62090;52.330;9.104;2023-06-14T08:59:03;6.03;;;1.60;;
3131;SDS011;62090;52.330;9.104;2023-06-14T09:01:36;8.43;;;2.20;;
3131;SDS011;62090;52.330;9.104;2023-06-14T09:04:14;2.30;;;1.60;;
3131;SDS011;62090;52.330;9.104;2023-06-14T09:06:44;5.30;;;1.70;;
3131;SDS011;62090;52.330;9.104;2023-06-14T09:09:19;1.80;;;1.60;;
3131;SDS011;62090;52.330;9.104;2023-06-14T09:11:49;3.90;;;1.70;;
3131;SDS011;62090;52.330;9.104;2023-06-14T09:14:23;2.73;;;1.50;;
3131;SDS011;62090;52.330;9.104;2023-06-14T09:16:53;2.90;;;1.47;;
3131;SDS011;62090;52.330;9.104;2023-06-14T09:19:24;2.23;;;1.63;;
3131;SDS011;62090;52.330;9.104;2023-06-14T09:21:54;2.23;;;1.43;;
3131;SDS011;62090;52.330;9.104;2023-06-14T09:24:24;2.60;;;1.53;;
3131;SDS011;62090;52.330;9.104;2023-06-14T09:26:54;2.13;;;1.43;;
3131;SDS011;62090;52.330;9.104;2023-06-14T09:29:27;3.77;;;1.83;;
3131;SDS011;62090;52.330;9.104;2023-06-14T09:31:58;4.50;;;1.60;;
3131;SDS011;62090;52.330;9.104;2023-06-14T09:34:28;2.27;;;1.63;;
3131;SDS011;62090;52.330;9.104;2023-06-14T09:36:58;1.80;;;1.33;;
3131;SDS011;62090;52.330;9.104;2023-06-14T09:39:28;5.60;;;1.70;;
3131;SDS011;62090;52.330;9.104;2023-06-14T09:41:58;2.10;;;1.57;;
3131;SDS011;62090;52.330;9.104;2023-06-14T09:44:31;4.50;;;1.50;;
3131;SDS011;62090;52.330;9.104;2023-06-14T09:47:00;3.97;;;1.63;;
3131;SDS011;62090;52.330;9.104;2023-06-14T09:49:32;2.90;;;1.80;;
3131;SDS011;62090;52.330;9.104;2023-06-14T09:52:02;3.03;;;1.80;;
3131;SDS011;62090;52.330;9.104;2023-06-14T09:54:33;2.03;;;1.53;;
3131;SDS011;62090;52.330;9.104;2023-06-14T09:57:09;4.23;;;1.47;;
3131;SDS011;62090;52.330;9.104;2023-06-14T09:59:44;10.03;;;1.77;;
3131;SDS011;62090;52.330;9.104;2023-06-14T10:02:18;2.40;;;1.70;;
3131;SDS011;62090;52.330;9.104;2023-06-14T10:04:56;1.90;;;1.60;;
3131;SDS011;62090;52.330;9.104;2023-06-14T10:07:35;1.87;;;1.50;;
3131;SDS011;62090;52.330;9.104;2023-06-14T10:10:08;4.27;;;1.90;;
3131;SDS011;62090;52.330;9.104;2023-06-14T10:12:39;4.93;;;1.40;;
3131;SDS011;62090;52.330;9.104;2023-06-14T10:15:14;2.60;;;1.63;;
3131;SDS011;62090;52.330;9.104;2023-06-14T10:17:49;5.07;;;1.97;;
3131;SDS011;62090;52.330;9.104;2023-06-14T10:20:26;4.10;;;1.70;;
3131;SDS011;62090;52.330;9.104;2023-06-14T10:23:02;5.23;;;1.33;;
3131;SDS011;62090;52.330;9.104;2023-06-14T10:25:37;1.83;;;1.47;;
3131;SDS011;62090;52.330;9.104;2023-06-14T10:28:17;2.63;;;1.80;;
3131;SDS011;62090;52.330;9.104;2023-06-14T10:31:04;5.87;;;2.10;;
3131;SDS011;62090;52.330;9.104;2023-06-14T10:33:35;2.47;;;1.70;;
3131;SDS011;62090;52.330;9.104;2023-06-14T10:36:23;6.73;;;1.70;;
3131;SDS011;62090;52.330;9.104;2023-06-14T10:38:58;4.57;;;1.90;;
3131;SDS011;62090;52.330;9.104;2023-06-14T10:41:29;3.60;;;1.90;;
3131;SDS011;62090;52.330;9.104;2023-06-14T10:47:04;2.17;;;1.73;;
3131;SDS011;62090;52.330;9.104;2023-06-14T10:49:40;4.00;;;1.80;;
3131;SDS011;62090;52.330;9.104;2023-06-14T10:52:13;4.83;;;2.07;;
3131;SDS011;62090;52.330;9.104;2023-06-14T10:54:59;6.90;;;2.20;;
3131;SDS011;62090;52.330;9.104;2023-06-14T10:57:36;1.60;;;1.40;;
3131;SDS011;62090;52.330;9.104;2023-06-14T11:00:11;2.40;;;1.50;;
3131;SDS011;62090;52.330;9.104;2023-06-14T11:02:56;3.83;;;1.63;;
3131;SDS011;62090;52.330;9.104;2023-06-14T11:05:50;5.00;;;1.57;;
3131;SDS011;62090;52.330;9.104;2023-06-14T11:11:21;5.80;;;1.83;;
3131;SDS011;62090;52.330;9.104;2023-06-14T11:13:52;3.60;;;1.97;;
3131;SDS011;62090;52.330;9.104;2023-06-14T11:16:22;2.13;;;1.30;;
3131;SDS011;62090;52.330;9.104;2023-06-14T11:18:59;4.13;;;1.70;;
3131;SDS011;62090;52.330;9.104;2023-06-14T11:21:31;3.70;;;1.93;;
3131;SDS011;62090;52.330;9.104;2023-06-14T11:24:02;4.97;;;1.67;;
3131;SDS011;62090;52.330;9.104;2023-06-14T11:26:32;3.87;;;2.00;;
3131;SDS011;62090;52.330;9.104;2023-06-14T11:29:02;3.90;;;1.90;;
3131;SDS011;62090;52.330;9.104;2023-06-14T11:31:32;1.83;;;1.57;;
3131;SDS011;62090;52.330;9.104;2023-06-14T11:34:04;4.20;;;1.63;;
3131;SDS011;62090;52.330;9.104;2023-06-14T11:36:35;2.50;;;1.73;;
3131;SDS011;62090;52.330;9.104;2023-06-14T11:39:05;2.37;;;1.70;;
3131;SDS011;62090;52.330;9.104;2023-06-14T11:41:36;2.17;;;1.60;;
3131;SDS011;62090;52.330;9.104;2023-06-14T11:44:08;2.90;;;1.97;;
3131;SDS011;62090;52.330;9.104;2023-06-14T11:46:38;3.57;;;1.87;;
3131;SDS011;62090;52.330;9.104;2023-06-14T11:49:11;2.07;;;1.60;;
3131;SDS011;62090;52.330;9.104;2023-06-14T11:51:42;3.67;;;1.77;;
3131;SDS011;62090;52.330;9.104;2023-06-14T11:54:12;2.93;;;1.80;;
3131;SDS011;62090;52.330;9.104;2023-06-14T11:56:42;9.40;;;2.60;;
3131;SDS011;62090;52.330;9.104;2023-06-14T11:59:13;5.63;;;2.20;;
3131;SDS011;62090;52.330;9.104;2023-06-14T12:01:43;3.20;;;1.97;;
3131;SDS011;62090;52.330;9.104;2023-06-14T12:04:22;5.17;;;2.10;;
3131;SDS011;62090;52.330;9.104;2023-06-14T12:06:53;4.77;;;1.97;;
3131;SDS011;62090;52.330;9.104;2023-06-14T12:09:24;6.30;;;1.80;;
3131;SDS011;62090;52.330;9.104;2023-06-14T12:11:59;5.70;;;1.80;;
3131;SDS011;62090;52.330;9.104;2023-06-14T12:14:30;2.97;;;2.50;;
3131;SDS011;62090;52.330;9.104;2023-06-14T12:17:03;3.30;;;2.03;;
3131;SDS011;62090;52.330;9.104;2023-06-14T12:19:43;5.40;;;1.90;;
3131;SDS011;62090;52.330;9.104;2023-06-14T12:22:14;4.23;;;1.90;;
3131;SDS011;62090;52.330;9.104;2023-06-14T12:24:44;7.83;;;2.20;;
3131;SDS011;62090;52.330;9.104;2023-06-14T12:27:15;4.00;;;1.63;;
3131;SDS011;62090;52.330;9.104;2023-06-14T12:29:46;6.73;;;1.83;;
3131;SDS011;62090;52.330;9.104;2023-06-14T12:32:30;3.17;;;2.23;;
3131;SDS011;62090;52.330;9.104;2023-06-14T12:35:03;3.20;;;2.00;;
3131;SDS011;62090;52.330;9.104;2023-06-14T12:37:34;3.60;;;2.20;;
3131;SDS011;62090;52.330;9.104;2023-06-14T12:40:04;2.70;;;2.00;;
3131;SDS011;62090;52.330;9.104;2023-06-14T12:42:35;2.70;;;2.10;;
3131;SDS011;62090;52.330;9.104;2023-06-14T12:45:05;3.30;;;2.23;;
3131;SDS011;62090;52.330;9.104;2023-06-14T12:47:36;2.63;;;2.17;;
3131;SDS011;62090;52.330;9.104;2023-06-14T12:50:08;5.40;;;1.93;;
3131;SDS011;62090;52.330;9.104;2023-06-14T12:52:39;8.20;;;2.30;;
3131;SDS011;62090;52.330;9.104;2023-06-14T12:55:09;3.53;;;1.83;;
3131;SDS011;62090;52.330;9.104;2023-06-14T12:57:39;5.00;;;2.13;;
3131;SDS011;62090;52.330;9.104;2023-06-14T13:00:09;16.03;;;3.13;;
3131;SDS011;62090;52.330;9.104;2023-06-14T13:02:40;7.00;;;2.00;;
3131;SDS011;62090;52.330;9.104;2023-06-14T13:05:13;4.07;;;2.13;;
3131;SDS011;62090;52.330;9.104;2023-06-14T13:07:43;3.63;;;2.50;;
3131;SDS011;62090;52.330;9.104;2023-06-14T13:10:12;4.57;;;2.73;;
3131;SDS011;62090;52.330;9.104;2023-06-14T13:12:43;4.13;;;2.70;;
3131;SDS011;62090;52.330;9.104;2023-06-14T13:15:13;3.83;;;2.60;;
3131;SDS011;62090;52.330;9.104;2023-06-14T13:17:43;4.40;;;2.23;;
3131;SDS011;62090;52.330;9.104;2023-06-14T13:20:18;11.43;;;2.47;;
3131;SDS011;62090;52.330;9.104;2023-06-14T13:22:48;4.47;;;2.10;;
3131;SDS011;62090;52.330;9.104;2023-06-14T13:25:18;5.03;;;2.30;;
3131;SDS011;62090;52.330;9.104;2023-06-14T13:27:49;7.70;;;2.40;;
3131;SDS011;62090;52.330;9.104;2023-06-14T13:30:18;16.60;;;2.70;;
3131;SDS011;62090;52.330;9.104;2023-06-14T13:32:48;8.97;;;2.43;;
3131;SDS011;62090;52.330;9.104;2023-06-14T13:35:21;5.33;;;1.73;;
3131;SDS011;62090;52.330;9.104;2023-06-14T13:37:51;7.53;;;2.53;;
3131;SDS011;62090;52.330;9.104;2023-06-14T13:40:22;6.20;;;2.80;;
3131;SDS011;62090;52.330;9.104;2023-06-14T13:42:51;3.07;;;2.30;;
3131;SDS011;62090;52.330;9.104;2023-06-14T13:45:21;5.13;;;2.60;;
3131;SDS011;62090;52.330;9.104;2023-06-14T13:47:51;2.37;;;2.10;;
3131;SDS011;62090;52.330;9.104;2023-06-14T13:50:24;3.50;;;2.20;;
3131;SDS011;62090;52.330;9.104;2023-06-14T13:52:54;10.07;;;2.90;;
3131;SDS011;62090;52.330;9.104;2023-06-14T13:55:24;4.83;;;2.67;;
3131;SDS011;62090;52.330;9.104;2023-06-14T13:57:53;5.70;;;2.83;;
3131;SDS011;62090;52.330;9.104;2023-06-14T14:00:24;5.10;;;2.80;;
3131;SDS011;62090;52.330;9.104;2023-06-14T14:02:54;6.30;;;2.60;;
3131;SDS011;62090;52.330;9.104;2023-06-14T14:05:29;3.70;;;2.60;;
3131;SDS011;62090;52.330;9.104;2023-06-14T14:07:59;7.40;;;2.80;;
3131;SDS011;62090;52.330;9.104;2023-06-14T14:10:30;4.17;;;2.53;;
3131;SDS011;62090;52.330;9.104;2023-06-14T14:13:00;5.20;;;2.57;;
3131;SDS011;62090;52.330;9.104;2023-06-14T14:15:30;4.97;;;2.20;;
3131;SDS011;62090;52.330;9.104;2023-06-14T14:18:01;6.33;;;2.43;;
3131;SDS011;62090;52.330;9.104;2023-06-14T14:20:34;2.70;;;2.13;;
3131;SDS011;62090;52.330;9.104;2023-06-14T14:23:04;12.50;;;3.20;;
3131;SDS011;62090;52.330;9.104;2023-06-14T14:25:34;5.80;;;2.43;;
3131;SDS011;62090;52.330;9.104;2023-06-14T14:28:03;3.53;;;2.90;;
3131;SDS011;62090;52.330;9.104;2023-06-14T14:30:33;6.40;;;2.97;;
3131;SDS011;62090;52.330;9.104;2023-06-14T14:33:06;4.00;;;2.07;;
3131;SDS011;62090;52.330;9.104;2023-06-14T14:35:40;7.13;;;2.87;;
3131;SDS011;62090;52.330;9.104;2023-06-14T14:38:12;5.53;;;2.63;;
3131;SDS011;62090;52.330;9.104;2023-06-14T14:40:42;6.33;;;2.93;;
3131;SDS011;62090;52.330;9.104;2023-06-14T14:43:13;4.10;;;2.60;;
3131;SDS011;62090;52.330;9.104;2023-06-14T14:45:42;5.33;;;2.67;;
3131;SDS011;62090;52.330;9.104;2023-06-14T14:48:12;5.77;;;3.00;;
3131;SDS011;62090;52.330;9.104;2023-06-14T14:50:45;5.07;;;2.40;;
3131;SDS011;62090;52.330;9.104;2023-06-14T14:53:15;4.00;;;2.57;;
3131;SDS011;62090;52.330;9.104;2023-06-14T14:55:45;5.07;;;2.77;;
3131;SDS011;62090;52.330;9.104;2023-06-14T14:58:15;6.60;;;3.00;;
3131;SDS011;62090;52.330;9.104;2023-06-14T15:00:45;5.43;;;2.63;;
3131;SDS011;62090;52.330;9.104;2023-06-14T15:03:15;7.80;;;2.97;;
3131;SDS011;62090;52.330;9.104;2023-06-14T15:05:47;6.03;;;3.43;;
3131;SDS011;62090;52.330;9.104;2023-06-14T15:08:17;5.13;;;3.03;;
3131;SDS011;62090;52.330;9.104;2023-06-14T15:10:47;4.37;;;2.63;;
3131;SDS011;62090;52.330;9.104;2023-06-14T15:13:17;14.73;;;2.70;;
3131;SDS011;62090;52.330;9.104;2023-06-14T15:15:47;10.50;;;3.03;;
3131;SDS011;62090;52.330;9.104;2023-06-14T15:18:17;7.00;;;3.07;;
3131;SDS011;62090;52.330;9.104;2023-06-14T15:20:50;6.80;;;2.90;;
3131;SDS011;62090;52.330;9.104;2023-06-14T15:23:20;8.40;;;3.23;;
3131;SDS011;62090;52.330;9.104;2023-06-14T15:25:50;11.70;;;3.13;;
3131;SDS011;62090;52.330;9.104;2023-06-14T15:28:20;4.20;;;2.77;;
3131;SDS011;62090;52.330;9.104;2023-06-14T15:30:50;5.72;;;2.83;;
3131;SDS011;62090;52.330;9.104;2023-06-14T15:33:20;6.43;;;3.17;;